createdAt,value
2023-02-23T00:02:03.654Z,4.00
2023-02-23T00:04:30.367Z,4.43
2023-02-23T00:06:57.152Z,6.00
2023-02-23T00:09:24.479Z,4.10
2023-02-23T00:11:57.122Z,4.73
2023-02-23T00:14:28.257Z,4.90
2023-02-23T00:16:56.449Z,4.30
2023-02-23T00:19:24.701Z,4.40
2023-02-23T00:21:52.395Z,4.37
2023-02-23T00:24:19.800Z,4.50
2023-02-23T00:26:51.025Z,4.90
2023-02-23T00:29:21.884Z,6.83
2023-02-23T00:31:50.915Z,4.27
2023-02-23T00:34:21.020Z,6.70
2023-02-23T00:36:55.315Z,3.77
2023-02-23T00:39:28.815Z,3.37
2023-02-23T00:41:56.860Z,4.10
2023-02-23T00:44:24.581Z,3.77
2023-02-23T00:46:52.568Z,3.60
2023-02-23T00:49:23.025Z,3.57
2023-02-23T00:51:49.879Z,3.60
2023-02-23T00:54:18.831Z,4.07
2023-02-23T00:56:46.421Z,3.90
2023-02-23T00:59:14.630Z,3.93
2023-02-23T01:01:41.934Z,3.97
2023-02-23T01:04:10.688Z,3.27
2023-02-23T01:06:39.522Z,3.60
2023-02-23T01:09:14.462Z,3.53
2023-02-23T01:11:41.734Z,3.03
2023-02-23T01:14:10.778Z,3.23
2023-02-23T01:16:38.793Z,3.20
2023-02-23T01:19:06.571Z,3.70
2023-02-23T01:21:41.925Z,3.37
2023-02-23T01:24:10.413Z,3.03
2023-02-23T01:26:41.592Z,3.27
2023-02-23T01:29:15.731Z,3.20
2023-02-23T01:31:47.369Z,3.73
2023-02-23T01:34:15.248Z,3.60
2023-02-23T01:36:44.307Z,4.17
2023-02-23T01:39:15.608Z,3.80
2023-02-23T01:41:43.075Z,3.23
2023-02-23T01:44:31.019Z,3.23
2023-02-23T01:46:58.262Z,3.40
2023-02-23T01:49:29.206Z,3.73
2023-02-23T01:52:13.125Z,3.87
2023-02-23T01:54:51.051Z,3.97
2023-02-23T01:57:21.609Z,3.30
2023-02-23T01:59:50.890Z,3.73
2023-02-23T02:02:23.010Z,3.67
2023-02-23T02:04:52.092Z,3.50
2023-02-23T02:07:26.601Z,3.60
2023-02-23T02:10:12.975Z,3.20
2023-02-23T02:12:51.928Z,4.83
2023-02-23T02:15:20.652Z,3.43
2023-02-23T02:18:38.373Z,4.27
2023-02-23T02:21:46.879Z,3.47
2023-02-23T02:24:48.710Z,3.67
2023-02-23T02:27:46.291Z,3.23
2023-02-23T02:30:40.391Z,5.03
2023-02-23T02:33:27.064Z,3.53
2023-02-23T02:36:18.344Z,3.73
2023-02-23T02:39:10.220Z,3.60
2023-02-23T02:42:06.415Z,3.30
2023-02-23T02:44:50.343Z,3.13
2023-02-23T02:47:36.003Z,3.83
2023-02-23T02:50:31.232Z,3.47
2023-02-23T02:53:10.835Z,7.23
2023-02-23T02:55:43.748Z,3.47
2023-02-23T02:58:13.143Z,6.80
2023-02-23T03:01:08.762Z,3.57
2023-02-23T03:04:01.815Z,5.00
2023-02-23T03:06:56.323Z,4.20
2023-02-23T03:10:06.693Z,3.83
2023-02-23T03:13:05.305Z,3.93
2023-02-23T03:16:21.770Z,3.17
2023-02-23T03:19:25.098Z,4.13
2023-02-23T03:22:25.540Z,3.37
2023-02-23T03:25:18.874Z,4.40
2023-02-23T03:28:15.992Z,4.90
2023-02-23T03:31:32.305Z,4.17
2023-02-23T03:34:56.096Z,4.37
2023-02-23T03:38:00.607Z,5.63
2023-02-23T03:40:53.575Z,4.50
2023-02-23T03:43:48.675Z,4.70
2023-02-23T03:46:37.833Z,6.87
2023-02-23T03:49:29.067Z,6.03
2023-02-23T03:52:43.140Z,4.47
2023-02-23T03:55:37.597Z,5.43
2023-02-23T03:58:30.163Z,4.83
2023-02-23T04:01:20.816Z,4.43
2023-02-23T04:04:10.165Z,5.07
2023-02-23T04:07:02.030Z,4.80
2023-02-23T04:09:48.255Z,4.90
2023-02-23T04:12:56.150Z,4.40
2023-02-23T04:15:33.740Z,4.40
2023-02-23T04:18:00.758Z,5.00
2023-02-23T04:20:31.300Z,7.00
2023-02-23T04:22:58.088Z,4.73
2023-02-23T04:25:26.741Z,5.10
2023-02-23T04:27:53.441Z,5.40
2023-02-23T04:30:20.472Z,5.07
2023-02-23T04:32:47.451Z,5.10
2023-02-23T04:35:14.341Z,6.77
2023-02-23T04:37:41.038Z,5.80
2023-02-23T04:40:09.171Z,5.20
2023-02-23T04:42:37.673Z,6.93
2023-02-23T04:45:04.825Z,5.63
2023-02-23T04:47:31.614Z,5.07
2023-02-23T04:49:58.392Z,5.50
2023-02-23T04:52:25.447Z,5.87
2023-02-23T04:54:52.159Z,5.83
2023-02-23T04:57:18.874Z,8.10
2023-02-23T04:59:45.759Z,5.87
2023-02-23T05:02:12.523Z,5.47
2023-02-23T05:04:39.245Z,5.27
2023-02-23T05:07:06.288Z,5.77
2023-02-23T05:09:33.269Z,5.33
2023-02-23T05:12:00.186Z,5.47
2023-02-23T05:14:27.414Z,6.37
2023-02-23T05:16:54.284Z,5.20
2023-02-23T05:19:21.597Z,5.43
2023-02-23T05:21:50.367Z,5.57
2023-02-23T05:24:18.738Z,5.63
2023-02-23T05:26:45.872Z,5.20
2023-02-23T05:29:12.729Z,5.30
2023-02-23T05:31:39.627Z,8.23
2023-02-23T05:34:06.692Z,6.90
2023-02-23T05:36:33.618Z,5.97
2023-02-23T05:39:00.400Z,9.20
2023-02-23T05:41:27.120Z,7.53
2023-02-23T05:43:55.592Z,6.93
2023-02-23T05:46:27.122Z,9.83
2023-02-23T05:49:00.717Z,10.87
2023-02-23T05:51:30.476Z,6.80
2023-02-23T05:53:57.466Z,14.77
2023-02-23T05:56:24.486Z,8.93
2023-02-23T05:58:59.671Z,9.87
2023-02-23T06:01:28.098Z,9.40
2023-02-23T06:03:56.108Z,8.17
2023-02-23T06:06:23.993Z,9.00
2023-02-23T06:08:51.661Z,7.93
2023-02-23T06:11:18.944Z,9.47
2023-02-23T06:13:45.854Z,9.50
2023-02-23T06:16:12.815Z,6.77
2023-02-23T06:18:40.222Z,7.27
2023-02-23T06:21:06.955Z,11.07
2023-02-23T06:23:34.085Z,9.20
2023-02-23T06:26:00.853Z,10.00
2023-02-23T06:28:28.521Z,8.67
2023-02-23T06:30:56.852Z,8.13
2023-02-23T06:33:24.254Z,9.93
2023-02-23T06:35:51.450Z,7.90
2023-02-23T06:38:19.155Z,8.33
2023-02-23T06:40:45.930Z,8.37
2023-02-23T06:43:12.689Z,9.30
2023-02-23T06:45:39.504Z,10.13
2023-02-23T06:48:06.737Z,10.60
2023-02-23T06:50:33.509Z,9.40
2023-02-23T06:53:00.321Z,10.63
2023-02-23T06:55:27.105Z,9.70
2023-02-23T06:57:54.272Z,11.47
2023-02-23T07:00:22.130Z,11.13
2023-02-23T07:02:49.035Z,11.00
2023-02-23T07:05:16.170Z,11.63
2023-02-23T07:07:43.236Z,11.90
2023-02-23T07:10:11.079Z,10.93
2023-02-23T07:12:37.816Z,10.97
2023-02-23T07:15:05.682Z,11.80
2023-02-23T07:17:32.420Z,11.20
2023-02-23T07:19:59.239Z,13.03
2023-02-23T07:22:29.300Z,10.70
2023-02-23T07:24:57.451Z,14.30
2023-02-23T07:27:24.960Z,12.73
2023-02-23T07:29:51.807Z,14.43
2023-02-23T07:32:18.689Z,14.33
2023-02-23T07:34:47.673Z,12.13
2023-02-23T07:37:14.575Z,14.57
2023-02-23T07:39:41.330Z,13.97
2023-02-23T07:42:08.150Z,20.30
2023-02-23T07:44:34.926Z,13.67
2023-02-23T07:47:01.637Z,13.30
2023-02-23T07:49:28.380Z,12.43
2023-02-23T07:51:55.111Z,16.43
2023-02-23T07:54:22.576Z,13.53
2023-02-23T07:56:49.286Z,12.90
2023-02-23T07:59:16.141Z,13.83
2023-02-23T08:01:43.481Z,12.97
2023-02-23T08:04:10.776Z,17.10
2023-02-23T08:06:37.588Z,16.10
2023-02-23T08:09:05.809Z,19.37
2023-02-23T08:11:32.492Z,25.47
2023-02-23T08:14:00.284Z,19.70
2023-02-23T08:16:33.245Z,21.60
2023-02-23T08:19:00.798Z,20.57
2023-02-23T08:21:29.343Z,25.67
2023-02-23T08:23:58.107Z,26.27
2023-02-23T08:26:25.717Z,27.07
2023-02-23T08:28:54.390Z,22.57
2023-02-23T08:31:24.076Z,25.37
2023-02-23T08:33:51.647Z,22.83
2023-02-23T08:36:18.716Z,25.27
2023-02-23T08:38:45.461Z,22.73
2023-02-23T08:41:12.596Z,21.10
2023-02-23T08:43:39.429Z,24.97
2023-02-23T08:46:07.331Z,22.57
2023-02-23T08:48:35.182Z,23.37
2023-02-23T08:51:03.069Z,27.30
2023-02-23T08:53:30.700Z,27.23
2023-02-23T08:56:00.588Z,22.10
2023-02-23T08:58:30.568Z,19.10
2023-02-23T09:00:58.286Z,23.67
2023-02-23T09:03:30.360Z,21.67
2023-02-23T09:06:06.185Z,22.73
2023-02-23T09:08:32.979Z,22.83
2023-02-23T09:10:59.711Z,28.90
2023-02-23T09:13:26.438Z,20.67
2023-02-23T09:15:54.377Z,29.70
2023-02-23T09:18:23.866Z,22.67
2023-02-23T09:20:50.916Z,26.77
2023-02-23T09:23:17.708Z,20.57
2023-02-23T09:25:45.550Z,25.40
2023-02-23T09:28:21.159Z,19.07
2023-02-23T09:30:48.478Z,16.60
2023-02-23T09:33:15.319Z,21.40
2023-02-23T09:35:42.058Z,21.40
2023-02-23T09:38:09.477Z,22.87
2023-02-23T09:40:54.286Z,31.23
2023-02-23T09:43:44.748Z,22.83
2023-02-23T09:46:41.598Z,29.77
2023-02-23T09:49:19.004Z,30.03
2023-02-23T09:51:55.274Z,24.27
2023-02-23T09:54:25.472Z,24.43
2023-02-23T09:56:56.196Z,23.27
2023-02-23T09:59:24.990Z,23.30
2023-02-23T10:02:30.874Z,23.70
2023-02-23T10:05:11.054Z,27.00
2023-02-23T10:07:52.547Z,25.30
2023-02-23T10:10:49.467Z,24.53
2023-02-23T10:13:34.159Z,30.93
2023-02-23T10:16:42.491Z,35.33
2023-02-23T10:19:31.816Z,32.50
2023-02-23T10:22:06.922Z,33.17
2023-02-23T10:24:51.032Z,34.07
2023-02-23T10:27:24.110Z,38.20
2023-02-23T10:30:01.362Z,30.87
2023-02-23T10:33:01.087Z,29.63
2023-02-23T10:35:29.822Z,33.43
2023-02-23T10:37:58.323Z,35.00
2023-02-23T10:40:32.104Z,29.27
2023-02-23T10:43:02.440Z,29.17
2023-02-23T10:45:36.051Z,33.27
2023-02-23T10:48:16.726Z,29.93
2023-02-23T10:50:45.675Z,34.87
2023-02-23T10:53:27.762Z,28.83
2023-02-23T10:56:15.799Z,26.00
2023-02-23T10:58:55.884Z,27.83
2023-02-23T11:02:00.316Z,27.80
2023-02-23T11:04:31.940Z,27.23
2023-02-23T11:07:11.626Z,21.37
2023-02-23T11:09:47.207Z,27.97
2023-02-23T11:12:28.494Z,21.27
2023-02-23T11:14:59.073Z,24.40
2023-02-23T11:17:36.917Z,24.27
2023-02-23T11:20:18.474Z,24.50
2023-02-23T11:22:46.006Z,22.93
2023-02-23T11:25:30.372Z,20.80
2023-02-23T11:27:58.732Z,19.93
2023-02-23T11:30:37.479Z,15.57
2023-02-23T11:33:10.565Z,13.90
2023-02-23T11:35:38.333Z,15.17
2023-02-23T11:38:24.280Z,14.23
2023-02-23T11:41:18.067Z,17.00
2023-02-23T11:43:56.617Z,18.70
2023-02-23T11:46:24.905Z,16.23
2023-02-23T11:49:14.524Z,17.83
2023-02-23T11:51:48.930Z,17.93
2023-02-23T11:54:35.970Z,16.97
2023-02-23T11:57:03.203Z,16.80
2023-02-23T11:59:50.466Z,13.60
2023-02-23T12:02:26.596Z,12.13
2023-02-23T12:05:07.665Z,11.73
2023-02-23T12:07:41.598Z,12.87
2023-02-23T12:10:26.416Z,12.80
2023-02-23T12:13:02.862Z,13.03
2023-02-23T12:16:03.080Z,12.63
2023-02-23T12:18:52.940Z,15.67
2023-02-23T12:21:38.221Z,25.53
2023-02-23T12:24:54.030Z,21.93
2023-02-23T12:27:45.066Z,20.10
2023-02-23T12:30:31.487Z,21.53
2023-02-23T12:33:13.634Z,19.07
2023-02-23T12:35:46.225Z,20.37
2023-02-23T12:38:27.597Z,16.60
2023-02-23T12:41:26.056Z,16.33
2023-02-23T12:44:03.166Z,22.03
2023-02-23T12:46:47.299Z,23.90
2023-02-23T12:49:31.727Z,19.50
2023-02-23T12:52:14.572Z,16.87
2023-02-23T12:54:44.664Z,20.43
2023-02-23T12:57:40.651Z,15.83
2023-02-23T13:01:12.173Z,13.80
2023-02-23T13:04:27.158Z,15.43
2023-02-23T13:07:34.850Z,13.47
2023-02-23T13:10:36.417Z,15.83
2023-02-23T13:13:42.736Z,11.67
2023-02-23T13:16:48.263Z,12.00
2023-02-23T13:19:38.507Z,12.93
2023-02-23T13:22:33.483Z,18.27
2023-02-23T13:25:07.996Z,13.30
2023-02-23T13:27:44.764Z,11.90
2023-02-23T13:30:12.482Z,12.87
2023-02-23T13:32:39.722Z,14.67
2023-02-23T13:35:17.774Z,15.17
2023-02-23T13:38:04.094Z,12.73
2023-02-23T13:40:54.937Z,12.00
2023-02-23T13:43:56.442Z,16.23
2023-02-23T13:46:54.657Z,10.43
2023-02-23T13:49:39.391Z,9.63
2023-02-23T13:52:33.119Z,7.93
2023-02-23T13:55:04.258Z,7.03
2023-02-23T13:57:33.341Z,7.80
2023-02-23T14:00:01.046Z,8.50
2023-02-23T14:02:34.460Z,8.20
2023-02-23T14:05:21.049Z,8.03
2023-02-23T14:07:58.950Z,10.13
2023-02-23T14:10:29.793Z,7.67
2023-02-23T14:13:17.464Z,9.20
2023-02-23T14:15:53.429Z,8.27
2023-02-23T14:18:26.104Z,9.10
2023-02-23T14:21:15.640Z,10.77
2023-02-23T14:23:42.275Z,10.87
2023-02-23T14:26:30.537Z,10.47
2023-02-23T14:29:17.060Z,8.60
2023-02-23T14:32:20.220Z,13.23
2023-02-23T14:34:59.242Z,10.40
2023-02-23T14:37:36.052Z,8.10
2023-02-23T14:40:17.912Z,9.53
2023-02-23T14:42:53.166Z,12.40
2023-02-23T14:45:28.924Z,8.57
2023-02-23T14:48:06.628Z,8.53
2023-02-23T14:50:37.512Z,7.13
2023-02-23T14:53:13.682Z,8.07
2023-02-23T14:55:43.925Z,6.90
2023-02-23T14:58:33.371Z,7.40
2023-02-23T15:01:00.180Z,8.90
2023-02-23T15:03:27.045Z,12.83
2023-02-23T15:06:00.326Z,10.00
2023-02-23T15:08:30.677Z,12.93
2023-02-23T15:11:08.801Z,8.83
2023-02-23T15:13:40.705Z,11.47
2023-02-23T15:16:22.903Z,8.20
2023-02-23T15:18:51.654Z,8.83
2023-02-23T15:21:25.018Z,9.00
2023-02-23T15:24:11.372Z,12.50
2023-02-23T15:26:41.000Z,10.27
2023-02-23T15:29:10.384Z,9.77
2023-02-23T15:31:40.661Z,11.43
2023-02-23T15:34:11.258Z,8.97
2023-02-23T15:36:39.887Z,8.77
2023-02-23T15:39:16.194Z,9.47
2023-02-23T15:41:49.856Z,10.10
2023-02-23T15:44:42.365Z,10.67
2023-02-23T15:47:23.158Z,9.33
2023-02-23T15:49:50.168Z,10.80
2023-02-23T15:52:23.331Z,9.73
2023-02-23T15:55:01.521Z,10.63
2023-02-23T15:57:49.282Z,11.17
2023-02-23T16:00:37.200Z,10.53
2023-02-23T16:03:06.852Z,9.30
2023-02-23T16:05:46.988Z,8.33
2023-02-23T16:08:25.185Z,11.23
2023-02-23T16:11:02.883Z,12.60
2023-02-23T16:13:30.231Z,10.53
2023-02-23T16:15:57.372Z,8.97
2023-02-23T16:18:39.345Z,9.33
2023-02-23T16:21:07.338Z,7.93
2023-02-23T16:23:49.227Z,11.53
2023-02-23T16:26:26.832Z,10.80
2023-02-23T16:29:00.122Z,11.17
2023-02-23T16:31:47.125Z,10.63
2023-02-23T16:34:24.511Z,8.97
2023-02-23T16:37:00.937Z,9.23
2023-02-23T16:39:30.889Z,10.43
2023-02-23T16:41:59.576Z,10.20
2023-02-23T16:44:41.375Z,11.07
2023-02-23T16:47:24.554Z,14.47
2023-02-23T16:49:51.757Z,10.77
2023-02-23T16:52:23.785Z,11.20
2023-02-23T16:54:54.430Z,11.23
2023-02-23T16:57:28.878Z,11.37
2023-02-23T16:59:57.395Z,12.80
2023-02-23T17:02:24.358Z,14.43
2023-02-23T17:04:52.559Z,12.57
2023-02-23T17:07:22.892Z,12.87
2023-02-23T17:09:50.919Z,14.10
2023-02-23T17:12:21.402Z,13.53
2023-02-23T17:14:49.564Z,12.90
2023-02-23T17:17:19.319Z,14.00
2023-02-23T17:19:46.532Z,11.10
2023-02-23T17:22:14.496Z,15.07
2023-02-23T17:24:43.284Z,13.23
2023-02-23T17:27:10.143Z,13.37
2023-02-23T17:29:36.990Z,14.23
2023-02-23T17:32:04.045Z,15.00
2023-02-23T17:34:31.255Z,15.03
2023-02-23T17:36:58.081Z,14.60
2023-02-23T17:39:27.906Z,13.50
2023-02-23T17:41:55.636Z,15.00
2023-02-23T17:44:22.663Z,15.70
2023-02-23T17:46:49.621Z,13.37
2023-02-23T17:49:16.426Z,13.00
2023-02-23T17:51:43.166Z,15.90
2023-02-23T17:54:09.892Z,15.43
2023-02-23T17:56:36.728Z,16.13
2023-02-23T17:59:03.505Z,15.13
2023-02-23T18:01:30.561Z,13.07
2023-02-23T18:03:58.566Z,16.47
2023-02-23T18:06:25.368Z,14.57
2023-02-23T18:08:52.072Z,16.60
2023-02-23T18:11:21.430Z,11.50
2023-02-23T18:13:51.054Z,16.47
2023-02-23T18:16:19.638Z,10.57
2023-02-23T18:18:48.766Z,13.33
2023-02-23T18:21:20.329Z,11.80
2023-02-23T18:23:48.568Z,10.67
2023-02-23T18:26:22.684Z,16.63
2023-02-23T18:28:50.954Z,13.83
2023-02-23T18:31:22.554Z,12.90
2023-02-23T18:33:52.610Z,13.60
2023-02-23T18:36:24.524Z,13.73
2023-02-23T18:38:51.754Z,14.10
2023-02-23T18:41:20.031Z,14.97
2023-02-23T18:43:47.693Z,12.13
2023-02-23T18:46:17.793Z,13.50
2023-02-23T18:48:44.897Z,13.90
2023-02-23T18:51:14.199Z,17.13
2023-02-23T18:53:42.003Z,15.33
2023-02-23T18:56:15.518Z,15.10
2023-02-23T18:58:44.863Z,13.23
2023-02-23T19:01:17.933Z,14.60
2023-02-23T19:03:45.329Z,12.00
2023-02-23T19:06:13.153Z,13.47
2023-02-23T19:08:41.872Z,14.00
2023-02-23T19:11:09.858Z,12.70
2023-02-23T19:13:39.971Z,13.20
2023-02-23T19:16:08.076Z,13.33
2023-02-23T19:18:35.821Z,15.07
2023-02-23T19:21:04.403Z,14.77
2023-02-23T19:23:31.366Z,14.30
2023-02-23T19:26:02.131Z,13.53
2023-02-23T19:28:29.231Z,14.83
2023-02-23T19:31:15.791Z,16.93
2023-02-23T19:33:43.425Z,17.13
2023-02-23T19:36:16.125Z,15.60
2023-02-23T19:38:42.979Z,17.73
2023-02-23T19:41:13.934Z,15.70
2023-02-23T19:43:41.484Z,18.27
2023-02-23T19:46:12.067Z,18.93
2023-02-23T19:48:39.343Z,20.03
2023-02-23T19:51:10.691Z,18.47
2023-02-23T19:53:38.148Z,18.60
2023-02-23T19:56:12.398Z,16.63
2023-02-23T19:58:42.872Z,15.77
2023-02-23T20:01:14.508Z,19.83
2023-02-23T20:03:43.153Z,16.93
2023-02-23T20:06:13.420Z,16.70
2023-02-23T20:08:41.930Z,20.03
2023-02-23T20:11:08.967Z,20.87
2023-02-23T20:13:38.538Z,20.43
2023-02-23T20:16:10.189Z,19.47
2023-02-23T20:18:39.632Z,19.10
2023-02-23T20:21:28.449Z,18.63
2023-02-23T20:23:56.194Z,17.13
2023-02-23T20:26:27.865Z,13.13
2023-02-23T20:28:56.312Z,14.53
2023-02-23T20:31:29.923Z,13.20
2023-02-23T20:34:07.699Z,16.60
2023-02-23T20:36:34.855Z,14.43
2023-02-23T20:39:01.633Z,14.87
2023-02-23T20:41:29.699Z,15.43
2023-02-23T20:43:56.843Z,14.87
2023-02-23T20:46:24.182Z,16.20
2023-02-23T20:48:51.001Z,17.50
2023-02-23T20:51:19.238Z,14.20
2023-02-23T20:53:47.969Z,15.07
2023-02-23T20:56:18.819Z,14.13
2023-02-23T20:58:46.122Z,14.83
2023-02-23T21:01:23.697Z,13.83
2023-02-23T21:03:52.861Z,15.83
2023-02-23T21:06:23.289Z,19.10
2023-02-23T21:08:55.478Z,17.10
2023-02-23T21:11:27.248Z,13.00
2023-02-23T21:13:54.071Z,17.10
2023-02-23T21:16:23.569Z,13.67
2023-02-23T21:18:56.849Z,11.07
2023-02-23T21:21:23.539Z,14.87
2023-02-23T21:23:51.181Z,18.80
2023-02-23T21:26:21.402Z,17.27
2023-02-23T21:28:49.006Z,16.27
2023-02-23T21:31:16.430Z,17.83
2023-02-23T21:33:43.731Z,16.00
2023-02-23T21:36:12.453Z,16.33
2023-02-23T21:38:42.814Z,15.57
2023-02-23T21:41:12.416Z,12.27
2023-02-23T21:43:41.623Z,12.30
2023-02-23T21:46:15.968Z,14.47
2023-02-23T21:48:43.722Z,13.77
2023-02-23T21:51:14.462Z,15.87
2023-02-23T21:53:43.357Z,13.00
2023-02-23T21:56:14.707Z,13.47
2023-02-23T21:58:51.060Z,15.63
2023-02-23T22:01:23.914Z,12.73
2023-02-23T22:03:51.074Z,13.27
2023-02-23T22:06:21.458Z,13.43
2023-02-23T22:08:51.474Z,10.50
2023-02-23T22:11:24.534Z,11.37
2023-02-23T22:13:58.882Z,13.63
2023-02-23T22:16:33.117Z,15.60
2023-02-23T22:19:03.842Z,11.43
2023-02-23T22:21:35.307Z,11.67
2023-02-23T22:24:05.281Z,12.77
2023-02-23T22:26:34.401Z,15.13
2023-02-23T22:29:01.360Z,13.87
2023-02-23T22:31:29.342Z,15.33
2023-02-23T22:33:56.747Z,13.50
2023-02-23T22:36:23.865Z,12.80
2023-02-23T22:38:50.658Z,12.60
2023-02-23T22:41:17.615Z,12.37
2023-02-23T22:43:46.563Z,11.83
2023-02-23T22:46:16.141Z,13.97
2023-02-23T22:48:44.819Z,12.37
2023-02-23T22:51:14.020Z,13.67
2023-02-23T22:53:40.819Z,12.57
2023-02-23T22:56:08.400Z,13.47
2023-02-23T22:58:36.179Z,18.67
2023-02-23T23:01:09.597Z,12.63
2023-02-23T23:03:41.961Z,15.80
2023-02-23T23:06:11.643Z,16.03
2023-02-23T23:08:41.819Z,13.67
2023-02-23T23:11:22.020Z,17.77
2023-02-23T23:14:01.944Z,16.47
2023-02-23T23:16:33.603Z,16.67
2023-02-23T23:19:04.939Z,18.40
2023-02-23T23:21:34.820Z,19.07
2023-02-23T23:24:07.662Z,16.00
2023-02-23T23:26:40.730Z,17.57
2023-02-23T23:29:13.480Z,16.67
2023-02-23T23:31:45.352Z,13.07
2023-02-23T23:34:16.237Z,15.13
2023-02-23T23:36:48.647Z,14.83
2023-02-23T23:39:18.032Z,15.63
2023-02-23T23:41:48.191Z,13.50
2023-02-23T23:44:22.304Z,16.80
2023-02-23T23:46:52.657Z,15.13
2023-02-23T23:49:25.338Z,14.40
2023-02-23T23:51:56.034Z,15.23
2023-02-23T23:54:26.754Z,13.57
2023-02-23T23:56:54.777Z,15.10
2023-02-23T23:59:25.910Z,16.10
